Terminal Aerodrome Forecast
Issued by NWS

Home | Current Version | Previous Version | Graphics & Text | Print | Product List | Glossary On
Versions: 1 2 3 4 5 6 7 8 9 10 11 12 13 14 15 16 17
000
FTUS41 KCLE 292000 AAA
TAFFDY
TAF AMD
KFDY 292016Z 2920/3018 26015G25KT P6SM VCSH OVC012
      TEMPO 2920/2922 2SM -SN BR OVC004
     FM300000 31015G25KT P6SM OVC015
     FM300800 32013G22KT P6SM OVC020=

USA.gov is the U.S. government's official web portal to all federal, state and local government web resources and services.